Time;durP1;ratioP1;P1;durP2;ratioP2;P2;SDS_P1;SDS_P2;PMS_P1;PMS_P2;Temp;Humidity;BMP_temperature;BMP_pressure;BME280_temperature;BME280_humidity;BME280_pressure;Samples;Min_cycle;Max_cycle;Signal;HPM_P1;HPM_P2
2022/05/09 00:02:11;;;;;;;12.93;5.68;;;4.60;99.90;;;;;;5023463;28;20075;-87
2022/05/09 00:04:39;;;;;;;;;;;4.60;99.90;;;;;;5019602;28;20048;-87
2022/05/09 00:07:14;;;;;;;18.40;7.18;;;4.60;99.90;;;;;;5019949;28;19924;-87
2022/05/09 00:09:42;;;;;;;18.25;5.40;;;4.60;99.90;;;;;;5020492;28;20049;-88
2022/05/09 00:12:23;;;;;;;17.50;6.18;;;4.70;99.90;;;;;;5037998;28;20040;-88
2022/05/09 00:15:14;;;;;;;14.63;6.15;;;4.70;99.90;;;;;;5023195;28;20119;-87
2022/05/09 00:17:49;;;;;;;17.08;5.50;;;4.70;99.90;;;;;;5027123;28;20585;-88
2022/05/09 00:23:09;;;;;;;13.77;5.30;;;4.60;99.90;;;;;;4954796;28;19952;-87
2022/05/09 00:25:38;;;;;;;11.15;4.72;;;4.60;99.90;;;;;;4945910;28;20042;-86
2022/05/09 00:28:10;;;;;;;16.23;5.35;;;4.50;99.90;;;;;;4989791;28;20151;-88
2022/05/09 00:30:42;;;;;;;11.63;5.50;;;4.50;99.90;;;;;;5023151;28;20048;-87
2022/05/09 00:33:08;;;;;;;12.82;5.88;;;4.50;99.90;;;;;;5021150;28;20087;-87
2022/05/09 00:35:35;;;;;;;12.32;5.15;;;4.40;99.90;;;;;;5038491;28;20517;-87
2022/05/09 00:38:10;;;;;;;13.27;5.35;;;4.40;99.90;;;;;;5039089;28;20044;-86
2022/05/09 00:43:35;;;;;;;14.55;5.65;;;4.30;99.90;;;;;;5038440;28;20553;-88
2022/05/09 00:46:02;;;;;;;14.27;5.43;;;4.30;99.90;;;;;;5042507;28;20033;-88
2022/05/09 00:48:38;;;;;;;11.50;4.00;;;4.30;1.00;;;;;;5037970;28;20052;-87
2022/05/09 00:51:18;;;;;;;3.00;2.70;;;4.20;99.90;;;;;;5024976;28;20158;-87
2022/05/09 00:53:47;;;;;;;16.77;6.47;;;4.10;99.90;;;;;;5024009;28;20555;-87
2022/05/09 00:56:24;;;;;;;10.63;4.60;;;4.10;99.90;;;;;;5032583;28;20252;-87
2022/05/09 00:58:56;;;;;;;10.50;3.28;;;4.10;99.90;;;;;;5027214;28;20044;-88
2022/05/09 01:01:28;;;;;;;7.80;3.50;;;3.90;99.90;;;;;;5023425;28;20036;-88
2022/05/09 01:04:04;;;;;;;3.65;2.95;;;3.90;99.90;;;;;;5038002;28;21478;-88
2022/05/09 01:06:30;;;;;;;41.80;6.35;;;3.90;99.90;;;;;;5020694;28;20041;-88
2022/05/09 01:08:56;;;;;;;173.57;9.30;;;3.90;99.90;;;;;;5033097;28;20044;-88
2022/05/09 01:11:28;;;;;;;6.60;2.75;;;3.90;99.90;;;;;;5025040;28;20357;-88
2022/05/09 01:14:04;;;;;;;4.45;3.00;;;3.80;99.90;;;;;;5018591;28;20041;-88
2022/05/09 01:19:47;;;;;;;3.28;2.35;;;3.80;99.90;;;;;;5027203;28;20417;-88
2022/05/09 01:22:46;;;;;;;5.28;3.00;;;3.80;99.90;;;;;;4989414;28;20985;-89
2022/05/09 01:25:32;;;;;;;3.60;2.67;;;3.80;99.90;;;;;;5043262;28;20047;-87
2022/05/09 01:28:11;;;;;;;4.63;2.30;;;3.70;99.90;;;;;;5018432;28;20048;-87
2022/05/09 01:31:22;;;;;;;16.42;6.28;;;3.70;99.90;;;;;;5020250;28;20116;-87
2022/05/09 01:33:52;;;;;;;11.02;3.83;;;3.80;99.90;;;;;;4989018;28;20054;-87
2022/05/09 01:36:44;;;;;;;8.75;3.60;;;3.80;99.90;;;;;;5022705;28;20144;-89
2022/05/09 01:39:15;;;;;;;43.90;7.75;;;3.70;99.90;;;;;;4999964;28;20376;-88
2022/05/09 01:41:44;;;;;;;64.13;4.70;;;3.70;99.90;;;;;;4997972;28;20052;-89
2022/05/09 01:44:24;;;;;;;6.55;2.97;;;3.60;99.90;;;;;;5001924;28;20044;-88
2022/05/09 01:49:51;;;;;;;10.63;4.50;;;3.70;99.90;;;;;;5016289;28;20064;-88
2022/05/09 01:52:23;;;;;;;10.63;4.68;;;3.70;1.00;;;;;;5020917;28;20034;-87
2022/05/09 01:54:59;;;;;;;6.53;3.70;;;3.50;99.90;;;;;;4999541;28;20045;-87
2022/05/09 01:57:33;;;;;;;36.17;2.95;;;3.50;99.90;;;;;;5000481;28;20178;-88
2022/05/09 02:00:11;;;;;;;1.90;1.30;;;3.50;99.90;;;;;;5019195;28;20181;-89
2022/05/09 02:02:43;;;;;;;5.35;2.28;;;3.30;99.90;;;;;;5011774;28;20037;-88
2022/05/09 02:05:12;;;;;;;;;;;3.30;99.90;;;;;;5020611;28;20041;-87
2022/05/09 02:07:49;;;;;;;66.95;6.13;;;3.50;1.00;;;;;;5010254;28;20298;-88
2022/05/09 02:10:16;;;;;;;;;;;3.50;99.90;;;;;;5016295;28;20046;-88
2022/05/09 02:12:58;;;;;;;9.82;2.63;;;3.40;99.90;;;;;;5005612;28;21013;-87
2022/05/09 02:15:31;;;;;;;48.17;6.70;;;3.20;99.90;;;;;;5014271;28;20033;-88
2022/05/09 02:18:00;;;;;;;91.45;5.38;;;3.30;99.90;;;;;;5002986;28;20102;-88
2022/05/09 02:20:29;;;;;;;3.13;2.60;;;3.30;1.00;;;;;;5014021;28;20072;-88
2022/05/09 02:23:00;;;;;;;;;;;3.20;1.00;;;;;;5003553;28;20044;-88
2022/05/09 02:25:29;;;;;;;6.00;3.10;;;3.40;1.00;;;;;;4996086;28;19928;-88
2022/05/09 02:28:07;;;;;;;123.47;5.97;;;3.30;1.00;;;;;;5003021;28;20105;-87
2022/05/09 02:30:39;;;;;;;66.72;4.60;;;3.40;1.00;;;;;;5005316;28;20041;-86
2022/05/09 02:33:11;;;;;;;205.63;12.50;;;3.50;1.00;;;;;;4997989;28;20135;-87
2022/05/09 02:35:38;;;;;;;6.55;4.10;;;3.50;1.00;;;;;;5017255;28;20046;-87
2022/05/09 02:38:05;;;;;;;8.48;3.95;;;3.50;1.00;;;;;;5012598;28;20081;-88
2022/05/09 02:40:37;;;;;;;10.63;4.90;;;3.40;1.00;;;;;;5001712;28;20037;-87
2022/05/09 02:43:07;;;;;;;12.18;5.13;;;3.40;1.00;;;;;;5006107;28;21063;-88
2022/05/09 02:45:44;;;;;;;26.30;9.00;;;3.40;1.00;;;;;;4996484;28;20474;-88
2022/05/09 02:48:18;;;;;;;18.48;8.25;;;3.50;43.60;;;;;;5015461;28;20095;-88
2022/05/09 02:50:53;;;;;;;16.50;6.90;;;3.60;98.70;;;;;;5005795;28;20041;-87
2022/05/09 02:53:19;;;;;;;13.93;6.28;;;3.50;14.90;;;;;;5017906;28;20048;-87
2022/05/09 02:55:53;;;;;;;11.55;5.65;;;3.50;22.60;;;;;;5003204;28;20478;-87
2022/05/09 02:58:22;;;;;;;9.65;5.43;;;3.40;1.00;;;;;;5003525;28;20044;-87
2022/05/09 03:00:54;;;;;;;11.27;6.10;;;3.30;1.00;;;;;;5004086;28;20275;-87
2022/05/09 03:06:10;;;;;;;18.45;5.57;;;3.30;1.00;;;;;;5015720;28;20127;-87
2022/05/09 03:08:36;;;;;;;19.95;5.53;;;3.20;1.00;;;;;;5001381;28;20044;-87
2022/05/09 03:11:02;;;;;;;13.52;5.30;;;3.20;1.00;;;;;;5006150;28;20045;-87
2022/05/09 03:13:28;;;;;;;9.60;5.28;;;3.20;1.00;;;;;;5004983;28;20541;-87
2022/05/09 03:15:54;;;;;;;10.23;5.63;;;3.20;1.00;;;;;;5005313;28;20040;-87
2022/05/09 03:18:23;;;;;;;13.85;5.43;;;3.10;1.00;;;;;;5005190;28;20087;-87
2022/05/09 03:20:52;;;;;;;16.65;6.57;;;3.10;1.00;;;;;;5004981;28;20469;-87
2022/05/09 03:23:18;;;;;;;12.38;6.38;;;3.20;1.00;;;;;;5016284;28;20091;-88
2022/05/09 03:25:46;;;;;;;12.50;5.55;;;3.20;1.00;;;;;;4997350;28;20041;-87
2022/05/09 03:28:19;;;;;;;17.42;6.38;;;3.10;1.00;;;;;;5023887;28;20041;-88
2022/05/09 03:30:45;;;;;;;22.02;7.95;;;3.20;1.00;;;;;;5004582;28;20609;-88
2022/05/09 03:33:11;;;;;;;14.98;7.28;;;3.30;1.00;;;;;;4999908;28;20040;-87
2022/05/09 03:35:41;;;;;;;13.38;6.63;;;3.30;1.00;;;;;;5001930;28;20351;-86
2022/05/09 03:38:13;;;;;;;19.90;8.30;;;3.30;1.00;;;;;;5001046;28;20048;-88
2022/05/09 03:40:41;;;;;;;11.52;6.60;;;3.30;20.40;;;;;;5023406;28;20199;-88
2022/05/09 03:43:18;;;;;;;11.52;6.88;;;3.30;34.90;;;;;;5019271;28;20101;-88
2022/05/09 03:45:50;;;;;;;20.45;9.73;;;3.40;27.20;;;;;;5004306;28;20081;-86
2022/05/09 03:48:18;;;;;;;13.32;7.65;;;3.40;25.70;;;;;;5010732;28;20056;-87
2022/05/09 03:50:44;;;;;;;13.02;7.10;;;3.30;30.40;;;;;;5005715;28;20093;-88
2022/05/09 03:53:10;;;;;;;118.65;10.07;;;3.30;30.40;;;;;;5001374;28;20099;-88
2022/05/09 03:55:36;;;;;;;203.25;11.93;;;3.30;1.00;;;;;;5021335;28;20033;-87
2022/05/09 03:58:05;;;;;;;227.05;13.52;;;2.80;1.00;;;;;;5019106;28;20123;-87
2022/05/09 04:00:35;;;;;;;10.65;5.68;;;2.80;1.00;;;;;;5005004;28;20055;-87
2022/05/09 04:03:04;;;;;;;10.73;5.70;;;2.90;1.00;;;;;;5005629;28;20094;-88
2022/05/09 04:05:39;;;;;;;14.43;7.22;;;2.90;1.00;;;;;;4997605;28;20125;-87
2022/05/09 04:08:08;;;;;;;9.93;6.38;;;3.00;1.00;;;;;;5005963;28;20171;-89
2022/05/09 04:10:42;;;;;;;17.92;7.85;;;3.10;1.00;;;;;;5009993;28;20140;-87
2022/05/09 04:13:11;;;;;;;16.17;7.72;;;3.20;5.50;;;;;;5002625;28;20029;-88
2022/05/09 04:18:34;;;;;;;17.02;9.13;;;3.50;95.40;;;;;;5032611;28;20049;-87
2022/05/09 04:21:00;;;;;;;20.27;10.30;;;3.50;99.90;;;;;;5004055;28;20190;-87
2022/05/09 04:23:26;;;;;;;21.48;10.15;;;3.60;99.90;;;;;;5003137;28;20124;-87
2022/05/09 04:25:55;;;;;;;17.92;9.68;;;3.70;99.90;;;;;;4998016;28;20042;-88
2022/05/09 04:28:30;;;;;;;18.73;8.20;;;3.80;99.90;;;;;;5010275;28;20044;-88
2022/05/09 04:31:07;;;;;;;18.73;8.15;;;3.80;99.90;;;;;;5015137;28;20053;-87
2022/05/09 04:33:33;;;;;;;14.68;6.65;;;3.80;99.90;;;;;;5020855;28;20064;-87
2022/05/09 04:36:07;;;;;;;8.52;4.10;;;3.70;44.80;;;;;;5001262;28;20040;-87
2022/05/09 04:38:38;;;;;;;6.82;4.80;;;3.60;11.90;;;;;;5002843;28;20064;-87
2022/05/09 04:41:19;;;;;;;6.38;4.07;;;3.60;36.40;;;;;;5000915;28;20033;-88
2022/05/09 04:43:51;;;;;;;14.43;3.83;;;3.60;1.00;;;;;;4995713;28;20079;-88
2022/05/09 04:46:22;;;;;;;9.25;4.10;;;3.70;1.00;;;;;;5003150;28;20049;-87
2022/05/09 04:48:51;;;;;;;6.07;4.28;;;3.80;1.00;;;;;;5006247;28;20600;-87
2022/05/09 04:51:22;;;;;;;9.70;5.32;;;3.80;1.00;;;;;;5026080;28;20044;-88
2022/05/09 04:53:56;;;;;;;15.85;7.50;;;3.80;1.00;;;;;;5017688;28;21007;-88
2022/05/09 04:56:37;;;;;;;10.95;6.53;;;3.90;1.00;;;;;;5018894;28;20441;-88
2022/05/09 04:59:05;;;;;;;13.25;6.22;;;4.10;1.00;;;;;;5004349;28;20052;-87
2022/05/09 05:01:39;;;;;;;16.42;7.80;;;4.20;1.00;;;;;;5016973;28;20517;-89
2022/05/09 05:04:10;;;;;;;21.95;8.48;;;4.50;1.00;;;;;;5017964;28;20041;-87
2022/05/09 05:06:39;;;;;;;19.00;6.25;;;4.60;63.10;;;;;;5003204;28;20046;-88
2022/05/09 05:09:05;;;;;;;27.65;9.20;;;4.70;1.00;;;;;;5029570;28;20517;-88
2022/05/09 05:11:31;;;;;;;12.30;5.82;;;4.90;94.70;;;;;;5011188;28;20029;-88
2022/05/09 05:13:56;;;;;;;7.95;5.15;;;5.10;94.90;;;;;;5017318;28;20048;-88
2022/05/09 05:19:15;;;;;;;13.38;6.80;;;5.30;35.70;;;;;;5012385;28;20580;-88
2022/05/09 05:21:55;;;;;;;18.98;8.57;;;5.60;90.20;;;;;;5006668;28;20370;-89
2022/05/09 05:24:24;;;;;;;21.48;10.32;;;5.80;99.80;;;;;;5000347;28;20033;-88
2022/05/09 05:26:51;;;;;;;21.80;10.27;;;6.00;99.90;;;;;;5005370;28;20123;-87
2022/05/09 05:29:22;;;;;;;16.50;9.85;;;6.30;99.90;;;;;;5003118;28;20060;-88
2022/05/09 05:31:51;;;;;;;30.30;11.35;;;6.40;99.90;;;;;;5004347;28;20049;-89
2022/05/09 05:34:17;;;;;;;33.13;12.20;;;6.60;99.90;;;;;;5018827;28;20056;-89
2022/05/09 05:36:43;;;;;;;29.05;10.80;;;6.70;99.90;;;;;;5004552;28;20029;-87
2022/05/09 05:39:13;;;;;;;27.10;10.55;;;6.90;99.90;;;;;;5002712;28;20041;-88
2022/05/09 05:41:47;;;;;;;25.88;10.25;;;7.00;99.90;;;;;;5007833;28;20120;-89
2022/05/09 05:44:15;;;;;;;30.40;11.10;;;7.20;99.90;;;;;;5003083;28;20222;-88
2022/05/09 05:46:44;;;;;;;25.30;11.68;;;7.30;78.90;;;;;;5002500;28;20620;-89
2022/05/09 05:49:31;;;;;;;26.20;10.45;;;7.50;16.40;;;;;;5015871;28;20084;-89
2022/05/09 05:52:03;;;;;;;20.77;10.88;;;7.70;1.00;;;;;;5002833;28;20076;-87
2022/05/09 05:54:40;;;;;;;22.15;10.38;;;7.80;1.00;;;;;;5032092;28;20453;-87
2022/05/09 05:57:30;;;;;;;26.13;10.32;;;8.00;1.00;;;;;;5015306;28;20048;-88
2022/05/09 06:00:06;;;;;;;21.15;9.65;;;8.20;1.00;;;;;;5012707;28;20326;-88
2022/05/09 06:02:38;;;;;;;19.13;10.02;;;8.30;99.90;;;;;;4991863;28;20233;-88
2022/05/09 06:05:08;;;;;;;27.42;10.52;;;8.50;99.90;;;;;;5000900;28;20160;-87
2022/05/09 06:07:33;;;;;;;24.33;10.38;;;8.60;99.90;;;;;;5012927;28;20114;-88
2022/05/09 06:09:59;;;;;;;19.23;9.73;;;8.80;99.90;;;;;;5017969;28;20033;-89
2022/05/09 06:12:25;;;;;;;20.23;10.07;;;8.90;99.90;;;;;;5002006;28;20083;-88
2022/05/09 06:17:39;;;;;;;29.17;9.50;;;9.20;99.90;;;;;;5013029;28;20308;-88
2022/05/09 06:20:11;;;;;;;22.70;8.73;;;9.40;99.90;;;;;;5001266;28;20548;-88
2022/05/09 06:22:38;;;;;;;21.02;9.02;;;9.50;99.90;;;;;;5033914;28;20041;-88
2022/05/09 06:25:31;;;;;;;22.73;9.23;;;9.60;99.90;;;;;;4994094;28;20406;-87
2022/05/09 06:28:04;;;;;;;25.05;8.45;;;9.70;99.90;;;;;;4991452;28;20052;-89
2022/05/09 06:30:31;;;;;;;20.33;8.43;;;9.90;99.90;;;;;;5001913;28;20029;-88
2022/05/09 06:32:58;;;;;;;15.20;7.82;;;10.00;99.90;;;;;;4995595;28;20053;-87
2022/05/09 06:35:26;;;;;;;22.00;8.10;;;10.10;99.90;;;;;;4997405;28;20041;-88
2022/05/09 06:37:58;;;;;;;19.58;7.70;;;10.20;99.90;;;;;;5006019;28;20109;-87
2022/05/09 06:40:29;;;;;;;19.48;7.82;;;10.30;99.90;;;;;;5034653;28;20044;-88
2022/05/09 06:42:56;;;;;;;18.42;7.45;;;10.40;99.90;;;;;;4998894;28;20037;-86
2022/05/09 06:45:29;;;;;;;20.45;7.15;;;10.50;93.20;;;;;;4995064;28;20166;-88
2022/05/09 06:48:00;;;;;;;15.32;6.93;;;10.60;99.90;;;;;;5000986;28;20306;-88
2022/05/09 06:50:32;;;;;;;16.98;7.60;;;10.80;55.40;;;;;;5001263;28;20037;-88
2022/05/09 06:53:26;;;;;;;21.00;7.07;;;10.90;31.30;;;;;;5016179;28;20102;-89
2022/05/09 06:55:52;;;;;;;14.52;7.40;;;11.00;27.30;;;;;;5001006;28;20334;-88
2022/05/09 06:58:26;;;;;;;19.77;8.32;;;11.10;1.00;;;;;;5034779;28;20099;-87
2022/05/09 07:00:53;;;;;;;20.95;6.90;;;11.30;1.00;;;;;;4997662;28;20133;-89
2022/05/09 07:03:25;;;;;;;15.15;6.63;;;11.40;1.00;;;;;;5001144;28;20040;-87
2022/05/09 07:05:56;;;;;;;17.33;8.05;;;11.50;1.00;;;;;;5012821;28;20103;-89
2022/05/09 07:08:29;;;;;;;17.55;7.05;;;11.70;1.00;;;;;;5004058;28;20518;-88
2022/05/09 07:11:04;;;;;;;16.40;6.72;;;11.80;1.00;;;;;;5013370;28;20115;-89
2022/05/09 07:13:30;;;;;;;15.52;5.70;;;12.00;1.00;;;;;;5003115;28;20064;-89
2022/05/09 07:15:57;;;;;;;12.98;6.00;;;11.90;1.00;;;;;;5003877;28;21099;-87
2022/05/09 07:18:27;;;;;;;15.60;6.03;;;12.10;99.90;;;;;;5012991;28;20041;-89
2022/05/09 07:20:56;;;;;;;13.15;5.60;;;12.30;99.90;;;;;;5003188;28;20041;-89
2022/05/09 07:23:27;;;;;;;16.23;5.25;;;12.50;99.90;;;;;;5014177;28;20042;-88
2022/05/09 07:25:58;;;;;;;12.43;5.25;;;12.50;99.90;;;;;;4996319;28;20123;-89
2022/05/09 07:28:27;;;;;;;12.73;5.60;;;12.60;99.90;;;;;;5012158;28;20346;-88
2022/05/09 07:30:53;;;;;;;14.57;5.45;;;12.80;99.90;;;;;;4999336;28;20048;-87
2022/05/09 07:33:25;;;;;;;15.90;5.72;;;12.90;99.90;;;;;;5000677;28;20056;-87
2022/05/09 07:35:51;;;;;;;14.02;5.35;;;13.10;99.90;;;;;;5028070;28;20045;-88
2022/05/09 07:38:17;;;;;;;13.25;5.47;;;13.20;99.90;;;;;;5010824;28;20033;-88
2022/05/09 07:40:54;;;;;;;12.40;4.95;;;13.30;99.90;;;;;;5012167;28;20415;-88
2022/05/09 07:43:23;;;;;;;14.02;5.15;;;13.40;99.90;;;;;;5028307;28;20456;-88
2022/05/09 07:45:51;;;;;;;11.63;5.05;;;13.50;99.90;;;;;;5030767;28;20053;-88
2022/05/09 07:48:19;;;;;;;13.55;5.63;;;13.60;99.90;;;;;;5007615;28;20049;-88
2022/05/09 07:50:48;;;;;;;10.60;4.93;;;13.70;99.90;;;;;;5017519;28;20033;-87
2022/05/09 07:53:19;;;;;;;19.23;4.90;;;13.80;99.90;;;;;;4995961;28;20453;-88
2022/05/09 07:55:46;;;;;;;12.18;5.00;;;14.00;99.90;;;;;;5031492;28;20026;-88
2022/05/09 07:58:13;;;;;;;11.38;4.82;;;14.20;99.90;;;;;;4998909;28;20488;-88
2022/05/09 08:00:40;;;;;;;15.60;5.10;;;14.30;99.90;;;;;;5008376;28;20042;-89
2022/05/09 08:03:07;;;;;;;9.98;4.55;;;14.30;99.90;;;;;;5002935;28;20072;-88
2022/05/09 08:05:34;;;;;;;10.32;4.60;;;14.50;99.90;;;;;;5011612;28;20131;-88
2022/05/09 08:08:03;;;;;;;15.27;4.72;;;14.70;99.90;;;;;;4995652;28;20093;-88
2022/05/09 08:10:30;;;;;;;17.02;4.70;;;14.80;99.90;;;;;;5011989;28;20096;-88
2022/05/09 08:12:58;;;;;;;10.50;4.30;;;14.80;99.90;;;;;;4999862;28;20099;-89
2022/05/09 08:15:25;;;;;;;11.95;5.28;;;15.00;99.90;;;;;;5011077;28;20072;-88
2022/05/09 08:17:52;;;;;;;18.08;4.85;;;15.10;99.90;;;;;;5022225;28;20117;-89
2022/05/09 08:20:18;;;;;;;13.45;5.38;;;15.20;99.90;;;;;;5022877;28;20034;-88
2022/05/09 08:22:45;;;;;;;13.02;4.65;;;15.40;99.90;;;;;;5003352;28;20030;-88
2022/05/09 08:25:16;;;;;;;10.80;4.90;;;15.10;99.90;;;;;;5052665;28;20128;-88
2022/05/09 08:27:44;;;;;;;12.10;4.47;;;15.60;99.90;;;;;;5018471;28;20045;-88
2022/05/09 08:30:13;;;;;;;11.02;4.80;;;15.80;99.90;;;;;;5019393;28;20060;-88
2022/05/09 08:32:45;;;;;;;14.57;4.47;;;15.90;99.90;;;;;;5032064;28;20148;-88
2022/05/09 08:35:11;;;;;;;10.90;4.18;;;16.00;99.90;;;;;;5035079;28;20060;-89
2022/05/09 08:37:45;;;;;;;13.95;4.60;;;16.10;99.90;;;;;;5029058;28;20144;-89
2022/05/09 08:40:13;;;;;;;7.70;3.58;;;16.30;99.90;;;;;;5037723;28;20052;-89
2022/05/09 08:42:59;;;;;;;9.13;3.88;;;16.50;99.90;;;;;;5001068;28;20045;-86
2022/05/09 08:45:41;;;;;;;11.00;3.70;;;16.70;99.90;;;;;;5006291;28;20137;-89
2022/05/09 08:48:32;;;;;;;12.88;4.47;;;16.70;99.90;;;;;;5018729;28;20490;-90
2022/05/09 08:51:03;;;;;;;11.07;3.88;;;16.90;99.90;;;;;;5016617;28;20407;-88
2022/05/09 08:53:38;;;;;;;12.25;4.38;;;16.80;99.90;;;;;;5004102;28;20099;-87
2022/05/09 08:56:07;;;;;;;10.90;4.85;;;16.90;99.90;;;;;;5018602;28;20295;-89
2022/05/09 08:59:34;;;;;;;8.40;4.35;;;17.10;99.90;;;;;;4993730;28;20131;-88
2022/05/09 09:02:12;;;;;;;;;;;17.20;99.90;;;;;;5000954;28;20128;-89
2022/05/09 09:04:40;;;;;;;10.52;3.65;;;17.60;99.90;;;;;;5021455;28;19920;-88
2022/05/09 09:07:08;;;;;;;12.15;4.53;;;17.80;99.90;;;;;;5008364;28;20036;-88
2022/05/09 09:09:40;;;;;;;13.65;4.13;;;17.90;99.90;;;;;;5020234;28;20487;-89
2022/05/09 09:12:19;;;;;;;12.30;4.43;;;17.50;99.90;;;;;;5021760;28;20447;-90
2022/05/09 09:15:00;;;;;;;40.60;8.65;;;17.40;99.90;;;;;;5015280;28;20223;-89
2022/05/09 09:17:47;;;;;;;10.93;3.47;;;17.70;99.90;;;;;;5019287;28;20088;-88
2022/05/09 09:20:25;;;;;;;11.00;3.88;;;17.90;99.90;;;;;;5015716;28;20040;-89
2022/05/09 09:23:16;;;;;;;7.32;3.53;;;18.00;99.90;;;;;;5004000;28;20133;-89
2022/05/09 09:25:58;;;;;;;8.38;3.20;;;18.10;99.90;;;;;;5004599;28;22411;-88
2022/05/09 09:28:35;;;;;;;9.82;3.65;;;18.30;99.90;;;;;;4999952;28;20076;-88
2022/05/09 09:31:34;;;;;;;12.25;3.50;;;18.40;99.90;;;;;;5021918;28;21474;-91
2022/05/09 09:34:26;;;;;;;9.95;3.50;;;18.30;99.90;;;;;;5016848;28;20045;-89
2022/05/09 09:37:05;;;;;;;7.63;3.53;;;18.50;99.90;;;;;;5016156;28;20102;-90
2022/05/09 09:39:31;;;;;;;12.98;3.53;;;18.90;99.90;;;;;;5002418;28;20118;-88
2022/05/09 09:41:57;;;;;;;8.80;3.10;;;19.00;99.90;;;;;;5014273;28;20075;-86
2022/05/09 09:44:25;;;;;;;14.55;3.72;;;18.90;99.90;;;;;;5011539;28;20048;-89
2022/05/09 09:47:21;;;;;;;12.55;3.38;;;19.10;99.90;;;;;;5015873;28;20056;-88
2022/05/09 09:49:49;;;;;;;9.05;3.42;;;18.80;99.90;;;;;;5042709;28;20112;-88
2022/05/09 09:52:27;;;;;;;9.88;3.20;;;19.30;99.90;;;;;;5029969;28;20071;-89
2022/05/09 09:55:13;;;;;;;12.35;3.90;;;19.00;99.90;;;;;;5027452;28;20041;-88
2022/05/09 09:57:39;;;;;;;15.38;3.15;;;19.30;99.90;;;;;;5006126;28;20231;-88
2022/05/09 10:00:25;;;;;;;11.65;3.55;;;19.60;99.90;;;;;;5020867;28;20158;-89
2022/05/09 10:02:53;;;;;;;13.27;3.83;;;19.70;99.90;;;;;;5022503;28;20037;-89
2022/05/09 10:05:51;;;;;;;12.52;3.55;;;19.30;99.90;;;;;;5015970;28;20048;-89
2022/05/09 10:08:33;;;;;;;11.30;3.53;;;19.60;99.90;;;;;;4977125;28;20052;-89
2022/05/09 10:11:09;;;;;;;8.18;3.35;;;19.20;99.90;;;;;;5033769;28;20052;-89
2022/05/09 10:13:44;;;;;;;9.60;3.25;;;19.50;99.90;;;;;;5037128;28;20045;-89
2022/05/09 10:16:11;;;;;;;;;;;19.20;99.90;;;;;;5019651;28;20032;-90
2022/05/09 10:18:42;;;;;;;8.18;3.10;;;20.00;99.90;;;;;;5020602;28;20281;-89
2022/05/09 10:24:47;;;;;;;8.85;3.55;;;20.10;99.90;;;;;;5000675;28;20103;-88
2022/05/09 10:26:59;;;;;;;6.45;2.83;;;19.70;99.90;;;;;;5021983;28;20056;-88
2022/05/09 10:29:29;;;;;;;7.68;2.58;;;20.00;99.90;;;;;;5001642;28;20045;-88
2022/05/09 10:32:00;;;;;;;9.55;2.65;;;20.40;99.90;;;;;;5023575;28;20053;-88
2022/05/09 10:34:36;;;;;;;8.70;2.97;;;20.50;99.90;;;;;;4999153;28;20111;-89
2022/05/09 10:37:04;;;;;;;7.57;3.05;;;21.00;99.90;;;;;;5028567;28;20044;-89
2022/05/09 10:39:39;;;;;;;5.75;2.53;;;20.90;99.90;;;;;;5002576;28;20040;-88
2022/05/09 10:42:07;;;;;;;6.13;2.70;;;20.80;97.70;;;;;;5004293;28;20048;-89
2022/05/09 10:44:46;;;;;;;8.35;2.72;;;21.20;99.90;;;;;;5015794;28;20128;-89
2022/05/09 10:47:31;;;;;;;8.00;2.28;;;21.10;97.70;;;;;;5017180;28;20770;-89
2022/05/09 10:50:14;;;;;;;6.10;2.40;;;21.30;97.50;;;;;;5018914;28;20037;-89
2022/05/09 10:52:50;;;;;;;10.35;3.08;;;21.40;96.30;;;;;;5000420;28;20649;-89
2022/05/09 10:55:28;;;;;;;8.48;2.58;;;21.10;93.60;;;;;;4997809;28;20389;-89
2022/05/09 10:58:10;;;;;;;7.93;2.50;;;21.40;93.00;;;;;;5008241;28;20090;-89
2022/05/09 11:00:43;;;;;;;7.25;3.00;;;21.50;91.60;;;;;;5003728;28;20045;-90
2022/05/09 11:03:37;;;;;;;7.68;3.10;;;21.60;89.50;;;;;;5030069;28;20182;-88
2022/05/09 11:06:17;;;;;;;8.77;2.42;;;21.40;86.40;;;;;;5011526;28;20032;-89
2022/05/09 11:09:08;;;;;;;7.68;2.60;;;21.90;91.60;;;;;;5012855;28;20053;-90
2022/05/09 11:12:12;;;;;;;6.38;2.40;;;21.80;88.20;;;;;;5010560;28;20354;-90
2022/05/09 11:15:03;;;;;;;5.35;2.50;;;21.60;86.40;;;;;;5024526;28;20033;-89
2022/05/09 11:17:41;;;;;;;8.88;2.60;;;22.00;90.10;;;;;;5049020;28;20079;-89
2022/05/09 11:20:28;;;;;;;11.18;2.53;;;21.90;84.20;;;;;;5007217;28;20037;-88
2022/05/09 11:23:12;;;;;;;5.80;2.10;;;21.90;83.10;;;;;;5002250;28;20239;-89
2022/05/09 11:26:12;;;;;;;8.63;2.60;;;22.10;84.40;;;;;;5030407;28;20489;-90
2022/05/09 11:28:57;;;;;;;6.00;2.17;;;22.30;83.70;;;;;;5017407;28;20041;-88
2022/05/09 11:31:37;;;;;;;5.53;2.25;;;22.40;87.40;;;;;;5029681;28;20077;-89
2022/05/09 11:34:21;;;;;;;7.22;2.00;;;22.50;85.80;;;;;;5016663;28;20519;-90
2022/05/09 11:37:24;;;;;;;5.88;1.95;;;22.80;81.20;;;;;;5005743;28;20107;-90
2022/05/09 11:40:01;;;;;;;4.88;2.20;;;23.10;81.30;;;;;;5024142;28;20112;-89
2022/05/09 11:45:58;;;;;;;6.00;2.45;;;23.20;84.50;;;;;;5013033;28;20053;-89
2022/05/09 11:48:37;;;;;;;5.65;2.20;;;23.10;75.00;;;;;;5023454;28;20119;-90
2022/05/09 11:51:22;;;;;;;5.47;2.30;;;22.80;69.50;;;;;;5019001;28;20363;-89
2022/05/09 11:53:57;;;;;;;5.80;2.38;;;22.60;66.40;;;;;;5019547;28;20494;-90
2022/05/09 11:56:24;;;;;;;6.22;2.13;;;22.80;65.40;;;;;;5002551;28;20120;-91
2022/05/09 11:58:50;;;;;;;6.90;2.40;;;23.00;65.20;;;;;;5019729;28;20035;-90
2022/05/09 12:01:16;;;;;;;6.20;2.15;;;23.00;63.70;;;;;;5005115;28;20033;-90
2022/05/09 12:03:42;;;;;;;5.45;2.03;;;23.40;71.20;;;;;;5005834;28;20049;-89
2022/05/09 12:06:27;;;;;;;6.78;2.25;;;23.40;69.40;;;;;;5019422;28;20138;-90
2022/05/09 12:08:58;;;;;;;8.52;2.25;;;23.90;74.70;;;;;;4999802;28;20525;-90
2022/05/09 12:11:45;;;;;;;8.77;2.70;;;24.10;72.80;;;;;;5016981;28;20025;-91
2022/05/09 12:15:07;;;;;;;6.50;2.28;;;24.00;65.90;;;;;;5021561;28;20567;-89
2022/05/09 12:17:44;;;;;;;5.20;2.08;;;24.10;76.10;;;;;;5004120;28;20042;-89
2022/05/09 12:20:47;;;;;;;7.45;2.40;;;24.30;68.40;;;;;;5041285;28;20076;-90
2022/05/09 12:23:41;;;;;;;5.25;2.40;;;24.30;69.00;;;;;;5001193;28;20548;-92
2022/05/09 12:26:14;;;;;;;7.65;2.30;;;23.90;61.40;;;;;;5034711;28;20045;-90
2022/05/09 12:28:47;;;;;;;5.50;2.00;;;23.70;57.60;;;;;;5003981;28;20078;-90
2022/05/09 12:31:37;;;;;;;6.25;2.55;;;24.20;65.30;;;;;;5034317;28;20041;-91
2022/05/09 12:34:15;;;;;;;7.35;2.50;;;24.90;67.50;;;;;;5001513;28;20037;-92
2022/05/09 12:36:53;;;;;;;8.18;2.70;;;24.80;63.50;;;;;;5000686;28;20067;-91
2022/05/09 12:39:42;;;;;;;8.70;2.40;;;24.20;59.20;;;;;;4981233;28;20120;-92
2022/05/09 12:42:12;;;;;;;7.50;2.10;;;24.00;53.90;;;;;;4986437;28;20561;-89
2022/05/09 12:44:51;;;;;;;5.03;2.63;;;24.70;60.60;;;;;;4999325;28;20045;-89
2022/05/09 12:47:40;;;;;;;;;;;;;;;;;;;;;
2022/05/09 12:50:30;;;;;;;7.57;2.85;;;24.60;55.10;;;;;;5003208;28;20488;-89
2022/05/09 12:53:11;;;;;;;6.32;2.40;;;24.30;51.30;;;;;;4996428;28;20045;-91
2022/05/09 12:56:09;;;;;;;5.40;2.85;;;23.90;49.20;;;;;;4990948;28;20046;-90
2022/05/09 12:58:58;;;;;;;8.27;2.90;;;24.70;53.40;;;;;;5002901;28;20041;-91
2022/05/09 13:01:28;;;;;;;5.88;2.40;;;25.00;51.20;;;;;;4982533;28;20406;-90
2022/05/09 13:04:05;;;;;;;8.55;2.92;;;24.70;52.50;;;;;;4985244;28;20077;-91
2022/05/09 13:06:45;;;;;;;6.35;2.30;;;24.50;44.50;;;;;;4981511;28;20037;-90
2022/05/09 13:09:22;;;;;;;7.88;2.60;;;24.70;47.20;;;;;;4981843;28;20470;-90
2022/05/09 13:12:29;;;;;;;7.50;2.63;;;24.20;40.40;;;;;;4987261;28;20597;-91
2022/05/09 13:15:22;;;;;;;8.05;3.25;;;24.70;54.00;;;;;;5018204;28;20159;-91
2022/05/09 13:18:12;;;;;;;10.48;3.30;;;25.10;50.00;;;;;;4979723;28;20041;-91
2022/05/09 13:21:00;;;;;;;6.22;2.40;;;25.20;52.60;;;;;;4986966;28;20072;-90
2022/05/09 13:23:37;;;;;;;6.70;2.28;;;25.10;55.00;;;;;;5012520;28;20403;-90
2022/05/09 13:26:17;;;;;;;8.93;2.67;;;25.30;58.70;;;;;;4997290;28;20118;-89
2022/05/09 13:29:26;;;;;;;7.95;2.60;;;25.60;52.30;;;;;;4983245;28;20030;-90
2022/05/09 13:32:06;;;;;;;7.80;2.88;;;26.20;52.50;;;;;;4989910;28;20057;-89
2022/05/09 13:34:50;;;;;;;8.32;2.63;;;25.70;44.40;;;;;;5017505;28;20398;-90
2022/05/09 13:37:44;;;;;;;7.88;3.20;;;26.00;42.60;;;;;;5009549;28;20379;-90
2022/05/09 13:40:15;;;;;;;7.50;2.58;;;26.00;43.80;;;;;;5001265;28;20040;-90
2022/05/09 13:43:03;;;;;;;6.03;2.85;;;25.60;40.90;;;;;;4997767;28;20076;-90
2022/05/09 13:45:46;;;;;;;5.65;3.00;;;26.30;42.40;;;;;;5022121;28;20091;-91
2022/05/09 13:48:21;;;;;;;7.68;3.30;;;26.30;45.70;;;;;;4989658;28;20056;-90
2022/05/09 13:50:55;;;;;;;6.68;2.78;;;26.00;45.90;;;;;;5001542;28;20045;-91
2022/05/09 13:53:46;;;;;;;5.32;2.70;;;26.20;44.70;;;;;;5017448;28;20410;-91
2022/05/09 13:56:23;;;;;;;6.25;2.40;;;25.60;35.40;;;;;;5005023;28;20489;-90
2022/05/09 13:59:04;;;;;;;5.60;2.53;;;26.20;39.20;;;;;;5001290;28;20064;-91